createdAt,value
2023-01-08T00:02:21.693Z,75.80
2023-01-08T00:04:48.631Z,75.90
2023-01-08T00:07:15.512Z,75.70
2023-01-08T00:09:42.376Z,75.50
2023-01-08T00:12:09.270Z,75.40
2023-01-08T00:14:36.151Z,75.50
2023-01-08T00:17:04.512Z,75.30
2023-01-08T00:19:31.519Z,75.40
2023-01-08T00:21:58.367Z,75.20
2023-01-08T00:24:25.259Z,75.20
2023-01-08T00:26:52.116Z,75.10
2023-01-08T00:29:19.012Z,75.00
2023-01-08T00:31:45.999Z,75.20
2023-01-08T00:34:13.136Z,75.10
2023-01-08T00:36:40.076Z,75.30
2023-01-08T00:39:07.001Z,75.30
2023-01-08T00:41:34.018Z,75.20
2023-01-08T00:44:03.264Z,75.10
2023-01-08T00:46:30.215Z,72.70
2023-01-08T00:48:57.032Z,71.80
2023-01-08T00:51:23.915Z,72.40
2023-01-08T00:53:50.745Z,71.90
2023-01-08T00:56:17.627Z,72.10
2023-01-08T00:58:44.456Z,72.00
2023-01-08T01:01:15.763Z,72.20
2023-01-08T01:03:43.093Z,72.30
2023-01-08T01:06:14.027Z,72.60
2023-01-08T01:08:41.390Z,72.80
2023-01-08T01:11:19.408Z,72.90
2023-01-08T01:13:46.922Z,72.80
2023-01-08T01:16:13.915Z,73.00
2023-01-08T01:18:40.773Z,73.10
2023-01-08T01:21:25.471Z,73.40
2023-01-08T01:24:01.459Z,73.60
2023-01-08T01:26:28.743Z,73.50
2023-01-08T01:28:57.528Z,73.50
2023-01-08T01:31:26.575Z,73.60
2023-01-08T01:33:53.477Z,73.60
2023-01-08T01:36:23.933Z,73.70
2023-01-08T01:38:53.034Z,73.80
2023-01-08T01:41:30.558Z,73.90
2023-01-08T01:43:59.930Z,73.90
2023-01-08T01:46:35.991Z,74.00
2023-01-08T01:49:12.234Z,74.20
2023-01-08T01:51:46.411Z,74.10
2023-01-08T01:54:13.562Z,74.40
2023-01-08T01:56:41.167Z,74.60
2023-01-08T01:59:08.083Z,74.50
2023-01-08T02:01:35.696Z,74.60
2023-01-08T02:04:02.884Z,74.90
2023-01-08T02:06:42.476Z,75.00
2023-01-08T02:09:41.778Z,74.90
2023-01-08T02:12:16.667Z,74.80
2023-01-08T02:14:53.593Z,74.70
2023-01-08T02:17:30.921Z,74.70
2023-01-08T02:20:08.107Z,74.50
2023-01-08T02:23:04.896Z,74.40
2023-01-08T02:26:05.969Z,74.50
2023-01-08T02:28:49.627Z,74.50
2023-01-08T02:31:17.735Z,74.80
2023-01-08T02:33:45.230Z,74.70
2023-01-08T02:36:27.103Z,74.70
2023-01-08T02:39:29.835Z,74.70
2023-01-08T02:42:02.524Z,74.60
2023-01-08T02:44:35.832Z,74.80
2023-01-08T02:47:08.293Z,75.10
2023-01-08T02:49:40.065Z,75.00
2023-01-08T02:52:09.046Z,75.10
2023-01-08T02:54:36.931Z,75.10
2023-01-08T02:57:13.081Z,75.30
2023-01-08T02:59:43.370Z,75.30
2023-01-08T03:02:11.784Z,75.50
2023-01-08T03:04:45.094Z,75.40
2023-01-08T03:07:12.011Z,76.40
2023-01-08T03:09:38.964Z,77.40
2023-01-08T03:12:21.077Z,77.10
2023-01-08T03:15:01.887Z,75.90
2023-01-08T03:17:35.816Z,75.90
2023-01-08T03:20:15.850Z,75.40
2023-01-08T03:22:46.426Z,74.70
2023-01-08T03:25:15.694Z,74.40
2023-01-08T03:27:48.074Z,73.50
2023-01-08T03:30:16.827Z,73.90
2023-01-08T03:32:44.870Z,73.20
2023-01-08T03:35:15.719Z,73.40
2023-01-08T03:37:46.855Z,73.80
2023-01-08T03:40:20.554Z,73.20
2023-01-08T03:42:47.754Z,72.90
2023-01-08T03:45:14.764Z,72.80
2023-01-08T03:47:42.665Z,72.50
2023-01-08T03:50:14.496Z,72.30
2023-01-08T03:52:41.349Z,72.50
2023-01-08T03:55:08.691Z,72.10
2023-01-08T03:57:35.549Z,72.50
2023-01-08T04:00:02.360Z,71.50
2023-01-08T04:02:29.365Z,71.50
2023-01-08T04:04:56.359Z,71.60
2023-01-08T04:07:23.233Z,71.60
2023-01-08T04:09:50.107Z,71.70
2023-01-08T04:12:16.914Z,71.30
2023-01-08T04:14:43.767Z,71.40
2023-01-08T04:17:13.874Z,71.30
2023-01-08T04:19:41.000Z,71.70
2023-01-08T04:22:10.620Z,71.70
2023-01-08T04:24:37.531Z,71.70
2023-01-08T04:27:04.470Z,71.70
2023-01-08T04:29:31.347Z,71.60
2023-01-08T04:31:58.259Z,71.60
2023-01-08T04:34:25.098Z,71.50
2023-01-08T04:36:51.983Z,71.50
2023-01-08T04:39:21.129Z,71.60
2023-01-08T04:41:47.934Z,71.40
2023-01-08T04:44:14.781Z,71.40
2023-01-08T04:46:41.713Z,71.50
2023-01-08T04:49:08.622Z,71.50
2023-01-08T04:51:35.436Z,71.70
2023-01-08T04:54:02.356Z,71.60
2023-01-08T04:56:29.258Z,71.40
2023-01-08T04:58:56.099Z,71.70
2023-01-08T05:01:24.989Z,71.50
2023-01-08T05:04:01.068Z,71.40
2023-01-08T05:06:30.037Z,71.30
2023-01-08T05:08:57.360Z,71.30
2023-01-08T05:11:24.920Z,71.10
2023-01-08T05:13:53.377Z,71.00
2023-01-08T05:16:20.438Z,71.10
2023-01-08T05:18:47.470Z,70.90
2023-01-08T05:21:15.369Z,70.80
2023-01-08T05:23:46.664Z,70.70
2023-01-08T05:26:13.631Z,70.70
2023-01-08T05:28:40.617Z,70.60
2023-01-08T05:31:08.757Z,70.40
2023-01-08T05:33:35.707Z,70.40
2023-01-08T05:36:06.183Z,70.30
2023-01-08T05:38:33.254Z,70.20
2023-01-08T05:41:02.245Z,70.00
2023-01-08T05:43:29.416Z,69.90
2023-01-08T05:45:59.606Z,69.80
2023-01-08T05:48:28.157Z,69.80
2023-01-08T05:50:55.069Z,69.50
2023-01-08T05:53:22.067Z,69.50
2023-01-08T05:55:48.963Z,69.50
2023-01-08T05:58:19.080Z,69.50
2023-01-08T06:00:46.098Z,69.50
2023-01-08T06:03:13.001Z,69.40
2023-01-08T06:05:39.917Z,69.40
2023-01-08T06:08:08.643Z,69.30
2023-01-08T06:10:38.492Z,69.20
2023-01-08T06:13:09.582Z,69.20
2023-01-08T06:15:39.256Z,69.20
2023-01-08T06:18:06.372Z,69.30
2023-01-08T06:20:33.445Z,69.30
2023-01-08T06:23:00.340Z,69.20
2023-01-08T06:25:27.662Z,69.10
2023-01-08T06:27:54.501Z,69.10
2023-01-08T06:30:21.470Z,69.10
2023-01-08T06:32:48.465Z,69.10
2023-01-08T06:35:15.316Z,69.20
2023-01-08T06:37:42.170Z,69.20
2023-01-08T06:40:09.550Z,69.10
2023-01-08T06:42:38.685Z,69.20
2023-01-08T06:45:07.313Z,69.30
2023-01-08T06:47:34.318Z,69.30
2023-01-08T06:50:01.471Z,69.20
2023-01-08T06:52:28.362Z,69.30
2023-01-08T06:54:55.226Z,69.40
2023-01-08T06:57:22.084Z,69.30
2023-01-08T06:59:48.959Z,69.30
2023-01-08T07:02:17.590Z,69.30
2023-01-08T07:04:45.039Z,69.50
2023-01-08T07:07:15.425Z,69.40
2023-01-08T07:09:42.680Z,69.60
2023-01-08T07:12:15.726Z,69.70
2023-01-08T07:14:42.721Z,70.00
2023-01-08T07:17:09.625Z,69.90
2023-01-08T07:19:36.498Z,70.10
2023-01-08T07:22:03.395Z,70.20
2023-01-08T07:24:30.257Z,70.20
2023-01-08T07:26:57.531Z,70.30
2023-01-08T07:29:24.591Z,70.40
2023-01-08T07:31:51.635Z,70.50
2023-01-08T07:34:18.697Z,70.70
2023-01-08T07:36:45.734Z,70.70
2023-01-08T07:39:12.572Z,70.70
2023-01-08T07:41:39.459Z,70.80
2023-01-08T07:44:06.388Z,70.90
2023-01-08T07:46:33.282Z,71.10
2023-01-08T07:49:00.103Z,71.10
2023-01-08T07:51:27.091Z,71.30
2023-01-08T07:53:56.519Z,71.40
2023-01-08T07:56:30.879Z,71.50
2023-01-08T07:58:57.788Z,71.60
2023-01-08T08:01:26.240Z,71.70
2023-01-08T08:03:53.394Z,71.80
2023-01-08T08:06:20.327Z,72.00
2023-01-08T08:08:47.467Z,71.90
2023-01-08T08:11:14.412Z,72.00
2023-01-08T08:13:44.862Z,72.10
2023-01-08T08:16:13.099Z,72.30
2023-01-08T08:18:40.047Z,72.30
2023-01-08T08:21:07.476Z,72.40
2023-01-08T08:23:36.670Z,72.50
2023-01-08T08:26:05.131Z,72.50
2023-01-08T08:28:32.053Z,72.70
2023-01-08T08:31:01.051Z,72.80
2023-01-08T08:33:28.027Z,72.80
2023-01-08T08:35:55.123Z,72.90
2023-01-08T08:38:23.994Z,73.10
2023-01-08T08:40:51.043Z,73.00
2023-01-08T08:43:18.424Z,73.10
2023-01-08T08:45:45.309Z,73.20
2023-01-08T08:48:12.291Z,73.20
2023-01-08T08:50:39.545Z,73.30
2023-01-08T08:53:07.096Z,73.40
2023-01-08T08:55:34.708Z,73.40
2023-01-08T08:58:15.358Z,73.30
2023-01-08T09:00:43.905Z,73.20
2023-01-08T09:03:15.570Z,73.20
2023-01-08T09:05:45.859Z,73.20
2023-01-08T09:08:13.151Z,73.10
2023-01-08T09:10:42.274Z,73.10
2023-01-08T09:13:09.480Z,72.70
2023-01-08T09:15:38.011Z,72.70
2023-01-08T09:18:05.267Z,72.70
2023-01-08T09:20:32.164Z,72.60
2023-01-08T09:22:59.913Z,72.50
2023-01-08T09:25:27.710Z,72.50
2023-01-08T09:28:06.621Z,72.40
2023-01-08T09:30:34.316Z,72.20
2023-01-08T09:33:03.142Z,72.10
2023-01-08T09:35:31.191Z,72.10
2023-01-08T09:37:58.363Z,72.10
2023-01-08T09:40:43.071Z,72.00
2023-01-08T09:43:18.320Z,71.90
2023-01-08T09:45:49.123Z,72.00
2023-01-08T09:48:18.774Z,71.90
2023-01-08T09:50:48.015Z,71.90
2023-01-08T09:53:17.690Z,72.00
2023-01-08T09:56:08.661Z,72.20
2023-01-08T09:58:44.434Z,72.30
2023-01-08T10:01:15.478Z,72.30
2023-01-08T10:03:47.291Z,72.70
2023-01-08T10:06:16.332Z,72.80
2023-01-08T10:11:16.449Z,72.80
2023-01-08T10:13:55.124Z,72.70
2023-01-08T10:16:33.824Z,72.70
2023-01-08T10:19:03.433Z,72.90
2023-01-08T10:21:39.664Z,72.70
2023-01-08T10:24:06.964Z,72.70
2023-01-08T10:26:36.866Z,72.80
2023-01-08T10:29:10.156Z,72.90
2023-01-08T10:31:58.658Z,72.80
2023-01-08T10:34:41.523Z,72.50
2023-01-08T10:37:27.036Z,72.80
2023-01-08T10:40:00.077Z,72.70
2023-01-08T10:42:27.187Z,72.60
2023-01-08T10:45:05.321Z,72.70
2023-01-08T10:47:36.240Z,72.30
2023-01-08T10:50:05.526Z,72.40
2023-01-08T10:52:36.331Z,72.40
2023-01-08T10:55:12.523Z,72.30
2023-01-08T10:57:42.666Z,72.20
2023-01-08T11:00:31.198Z,72.50
2023-01-08T11:03:01.227Z,72.60
2023-01-08T11:05:39.790Z,72.60
2023-01-08T11:08:17.896Z,72.60
2023-01-08T11:11:01.911Z,72.10
2023-01-08T11:13:30.151Z,71.70
2023-01-08T11:16:10.408Z,72.10
2023-01-08T11:18:48.735Z,71.90
2023-01-08T11:21:24.880Z,71.70
2023-01-08T11:24:32.397Z,71.30
2023-01-08T11:27:18.031Z,70.70
2023-01-08T11:29:50.611Z,70.80
2023-01-08T11:32:38.824Z,70.90
2023-01-08T11:35:29.579Z,71.10
2023-01-08T11:38:01.936Z,70.30
2023-01-08T11:40:44.485Z,70.30
2023-01-08T11:43:30.700Z,70.80
2023-01-08T11:46:13.606Z,70.70
2023-01-08T11:48:55.767Z,70.00
2023-01-08T11:51:47.323Z,70.40
2023-01-08T11:54:26.184Z,70.30
2023-01-08T11:57:13.657Z,70.40
2023-01-08T12:00:04.524Z,70.00
2023-01-08T12:02:52.569Z,69.80
2023-01-08T12:05:41.673Z,70.30
2023-01-08T12:08:16.442Z,70.60
2023-01-08T12:10:49.009Z,70.40
2023-01-08T12:13:54.602Z,70.40
2023-01-08T12:17:02.630Z,69.90
2023-01-08T12:19:47.672Z,70.20
2023-01-08T12:22:38.501Z,70.00
2023-01-08T12:25:17.418Z,70.20
2023-01-08T12:27:57.837Z,70.00
2023-01-08T12:30:44.999Z,70.00
2023-01-08T12:33:43.413Z,69.80
2023-01-08T12:36:16.141Z,69.40
2023-01-08T12:38:45.080Z,69.30
2023-01-08T12:41:14.398Z,69.50
2023-01-08T12:43:52.993Z,69.50
2023-01-08T12:46:22.155Z,69.30
2023-01-08T12:48:51.998Z,69.00
2023-01-08T12:51:48.664Z,69.30
2023-01-08T12:54:51.399Z,69.20
2023-01-08T12:57:42.788Z,69.50
2023-01-08T13:00:51.864Z,69.30
2023-01-08T13:03:26.004Z,69.20
2023-01-08T13:05:53.150Z,69.10
2023-01-08T13:08:32.581Z,69.10
2023-01-08T13:10:59.719Z,68.90
2023-01-08T13:13:34.062Z,69.20
2023-01-08T13:16:10.019Z,69.10
2023-01-08T13:18:37.648Z,68.80
2023-01-08T13:21:05.627Z,68.90
2023-01-08T13:23:38.354Z,68.90
2023-01-08T13:26:06.786Z,69.20
2023-01-08T13:28:44.682Z,68.60
2023-01-08T13:31:20.608Z,68.90
2023-01-08T13:33:49.315Z,68.30
2023-01-08T13:36:23.103Z,68.50
2023-01-08T13:39:11.503Z,68.40
2023-01-08T13:41:59.220Z,68.40
2023-01-08T13:44:28.925Z,68.40
2023-01-08T13:47:06.138Z,68.20
2023-01-08T13:49:41.235Z,68.20
2023-01-08T13:52:45.406Z,68.30
2023-01-08T13:55:16.846Z,68.50
2023-01-08T13:57:51.740Z,68.60
2023-01-08T14:00:28.476Z,68.70
2023-01-08T14:02:55.628Z,68.60
2023-01-08T14:05:28.808Z,68.60
2023-01-08T14:07:56.653Z,68.30
2023-01-08T14:10:24.935Z,68.20
2023-01-08T14:12:52.325Z,68.50
2023-01-08T14:15:27.385Z,68.60
2023-01-08T14:17:55.776Z,68.70
2023-01-08T14:20:36.437Z,68.70
2023-01-08T14:23:11.377Z,68.30
2023-01-08T14:25:38.561Z,68.20
2023-01-08T14:28:06.594Z,68.40
2023-01-08T14:30:33.805Z,68.20
2023-01-08T14:33:01.753Z,68.20
2023-01-08T14:35:35.177Z,68.50
2023-01-08T14:38:02.906Z,68.00
2023-01-08T14:40:39.135Z,68.20
2023-01-08T14:43:16.159Z,67.90
2023-01-08T14:45:49.428Z,68.10
2023-01-08T14:48:46.197Z,67.70
2023-01-08T14:51:18.623Z,68.00
2023-01-08T14:53:58.630Z,67.90
2023-01-08T14:56:31.045Z,67.60
2023-01-08T14:58:58.891Z,67.90
2023-01-08T15:01:28.678Z,67.80
2023-01-08T15:04:13.711Z,67.40
2023-01-08T15:06:41.347Z,67.20
2023-01-08T15:09:25.632Z,67.70
2023-01-08T15:12:00.363Z,67.50
2023-01-08T15:14:30.925Z,67.70
2023-01-08T15:17:04.140Z,67.70
2023-01-08T15:19:35.340Z,67.60
2023-01-08T15:22:02.554Z,67.80
2023-01-08T15:24:35.847Z,67.90
2023-01-08T15:27:09.966Z,67.90
2023-01-08T15:29:51.411Z,67.80
2023-01-08T15:32:21.192Z,67.80
2023-01-08T15:34:48.289Z,67.80
2023-01-08T15:37:16.097Z,67.80
2023-01-08T15:39:43.105Z,67.60
2023-01-08T15:42:37.363Z,67.60
2023-01-08T15:45:06.490Z,67.80
2023-01-08T15:47:33.513Z,67.60
2023-01-08T15:50:00.510Z,67.60
2023-01-08T15:52:31.280Z,67.80
2023-01-08T15:55:01.470Z,67.80
2023-01-08T15:57:32.316Z,67.60
2023-01-08T15:59:59.266Z,67.70
2023-01-08T16:02:26.373Z,67.60
2023-01-08T16:04:56.878Z,67.60
2023-01-08T16:07:23.805Z,67.60
2023-01-08T16:09:50.992Z,67.70
2023-01-08T16:12:17.840Z,67.70
2023-01-08T16:14:44.702Z,67.80
2023-01-08T16:17:11.574Z,67.70
2023-01-08T16:19:38.599Z,67.70
2023-01-08T16:22:05.794Z,68.00
2023-01-08T16:24:33.990Z,68.20
2023-01-08T16:27:01.130Z,68.30
2023-01-08T16:29:28.054Z,68.40
2023-01-08T16:31:55.760Z,68.50
2023-01-08T16:34:22.889Z,68.50
2023-01-08T16:36:49.702Z,68.50
2023-01-08T16:39:16.864Z,68.50
2023-01-08T16:41:44.034Z,68.40
2023-01-08T16:44:22.902Z,68.40
2023-01-08T16:46:50.152Z,68.30
2023-01-08T16:49:17.193Z,68.30
2023-01-08T16:51:44.523Z,68.20
2023-01-08T16:54:16.151Z,68.40
2023-01-08T16:56:43.424Z,68.50
2023-01-08T16:59:22.221Z,68.40
2023-01-08T17:01:50.208Z,68.50
2023-01-08T17:04:17.290Z,68.40
2023-01-08T17:06:44.149Z,68.50
2023-01-08T17:09:11.854Z,68.50
2023-01-08T17:11:38.999Z,68.50
2023-01-08T17:14:05.886Z,68.50
2023-01-08T17:16:32.998Z,68.50
2023-01-08T17:18:59.960Z,68.40
2023-01-08T17:21:26.871Z,68.40
2023-01-08T17:23:53.682Z,68.60
2023-01-08T17:26:20.651Z,68.60
2023-01-08T17:28:47.557Z,68.60
2023-01-08T17:31:20.142Z,68.60
2023-01-08T17:33:51.171Z,68.60
2023-01-08T17:36:26.665Z,68.70
2023-01-08T17:38:54.481Z,68.70
2023-01-08T17:41:40.909Z,68.60
2023-01-08T17:44:11.702Z,68.70
2023-01-08T17:46:42.462Z,68.70
2023-01-08T17:49:11.322Z,68.70
2023-01-08T17:51:40.616Z,68.70
2023-01-08T17:54:10.743Z,68.60
2023-01-08T17:56:37.806Z,68.70
2023-01-08T17:59:05.126Z,68.70
2023-01-08T18:01:34.081Z,68.90
2023-01-08T18:04:01.422Z,68.70
2023-01-08T18:06:28.359Z,68.70
2023-01-08T18:08:55.277Z,68.70
2023-01-08T18:11:22.404Z,68.60
2023-01-08T18:13:49.511Z,68.60
2023-01-08T18:16:16.439Z,68.60
2023-01-08T18:18:43.328Z,68.50
2023-01-08T18:21:10.271Z,68.40
2023-01-08T18:23:37.158Z,68.40
2023-01-08T18:26:06.454Z,68.50
2023-01-08T18:28:33.508Z,68.40
2023-01-08T18:31:00.596Z,68.40
2023-01-08T18:33:27.542Z,68.50
2023-01-08T18:35:54.377Z,68.50
2023-01-08T18:38:21.831Z,68.50
2023-01-08T18:40:49.332Z,68.40
2023-01-08T18:43:16.229Z,68.50
2023-01-08T18:45:43.208Z,68.50
2023-01-08T18:48:10.270Z,68.70
2023-01-08T18:50:40.951Z,68.70
2023-01-08T18:53:09.008Z,68.80
2023-01-08T18:55:37.223Z,68.90
2023-01-08T18:58:04.765Z,68.90
2023-01-08T19:00:31.999Z,69.00
2023-01-08T19:02:58.975Z,69.10
2023-01-08T19:05:25.942Z,69.20
2023-01-08T19:07:52.910Z,69.20
2023-01-08T19:10:21.677Z,69.30
2023-01-08T19:12:50.683Z,69.50
2023-01-08T19:15:17.698Z,69.60
2023-01-08T19:17:44.652Z,69.60
2023-01-08T19:20:11.980Z,69.70
2023-01-08T19:22:38.943Z,69.70
2023-01-08T19:25:06.408Z,69.90
2023-01-08T19:27:35.028Z,70.10
2023-01-08T19:30:03.428Z,70.30
2023-01-08T19:32:30.334Z,70.30
2023-01-08T19:34:57.257Z,70.40
2023-01-08T19:37:24.255Z,70.60
2023-01-08T19:39:51.139Z,70.70
2023-01-08T19:42:37.855Z,70.70
2023-01-08T19:45:05.462Z,70.80
2023-01-08T19:47:32.377Z,70.90
2023-01-08T19:49:59.234Z,71.10
2023-01-08T19:52:26.136Z,71.20
2023-01-08T19:54:55.140Z,71.30
2023-01-08T19:57:24.915Z,71.40
2023-01-08T19:59:51.945Z,71.40
2023-01-08T20:02:19.342Z,71.50
2023-01-08T20:04:46.404Z,71.60
2023-01-08T20:07:14.594Z,71.70
2023-01-08T20:09:42.516Z,71.70
2023-01-08T20:12:10.324Z,71.70
2023-01-08T20:14:37.747Z,71.80
2023-01-08T20:17:04.779Z,71.90
2023-01-08T20:19:31.698Z,71.90
2023-01-08T20:21:59.362Z,72.00
2023-01-08T20:24:26.225Z,72.20
2023-01-08T20:26:53.097Z,72.20
2023-01-08T20:29:19.984Z,72.30
2023-01-08T20:31:49.268Z,72.40
2023-01-08T20:34:16.417Z,72.60
2023-01-08T20:36:44.672Z,72.50
2023-01-08T20:39:16.349Z,72.60
2023-01-08T20:41:50.277Z,72.60
2023-01-08T20:44:28.441Z,72.70
2023-01-08T20:46:55.377Z,72.90
2023-01-08T20:49:25.180Z,73.00
2023-01-08T20:51:58.577Z,73.20
2023-01-08T20:54:26.192Z,73.40
2023-01-08T20:56:59.094Z,74.10
2023-01-08T20:59:26.830Z,74.30
2023-01-08T21:01:54.369Z,74.20
2023-01-08T21:04:21.698Z,74.30
2023-01-08T21:06:48.673Z,74.30
2023-01-08T21:09:17.947Z,74.20
2023-01-08T21:11:45.053Z,74.20
2023-01-08T21:14:12.265Z,74.20
2023-01-08T21:16:40.534Z,74.20
2023-01-08T21:19:10.398Z,74.20
2023-01-08T21:21:40.307Z,74.10
2023-01-08T21:24:10.987Z,73.90
2023-01-08T21:26:39.052Z,73.90
2023-01-08T21:29:07.282Z,73.90
2023-01-08T21:31:36.257Z,74.10
2023-01-08T21:34:04.222Z,73.20
2023-01-08T21:36:32.469Z,72.70
2023-01-08T21:39:01.106Z,72.70
2023-01-08T21:41:48.262Z,72.70
2023-01-08T21:44:42.601Z,72.60
2023-01-08T21:47:14.761Z,72.30
2023-01-08T21:49:41.889Z,72.30
2023-01-08T21:52:28.148Z,72.00
2023-01-08T21:54:56.204Z,72.10
2023-01-08T21:57:23.354Z,72.10
2023-01-08T21:59:51.278Z,71.80
2023-01-08T22:02:20.521Z,71.70
2023-01-08T22:04:48.121Z,71.80
2023-01-08T22:07:17.047Z,71.70
2023-01-08T22:09:44.009Z,71.40
2023-01-08T22:12:10.996Z,71.50
2023-01-08T22:14:38.128Z,71.40
2023-01-08T22:17:08.312Z,71.20
2023-01-08T22:19:38.064Z,71.20
2023-01-08T22:22:05.323Z,71.20
2023-01-08T22:24:32.282Z,71.10
2023-01-08T22:26:59.598Z,71.10
2023-01-08T22:29:26.581Z,71.00
2023-01-08T22:31:53.659Z,70.90
2023-01-08T22:34:20.521Z,70.70
2023-01-08T22:36:50.482Z,70.80
2023-01-08T22:39:18.017Z,70.70
2023-01-08T22:41:45.071Z,70.30
2023-01-08T22:44:12.882Z,70.40
2023-01-08T22:46:39.816Z,70.40
2023-01-08T22:49:06.853Z,70.30
2023-01-08T22:51:33.813Z,70.10
2023-01-08T22:54:00.681Z,70.30
2023-01-08T22:56:28.029Z,70.20
2023-01-08T22:58:55.236Z,70.00
2023-01-08T23:01:25.090Z,70.20
2023-01-08T23:03:53.973Z,70.30
2023-01-08T23:06:22.524Z,70.30
2023-01-08T23:08:50.372Z,70.30
2023-01-08T23:11:20.069Z,70.30
2023-01-08T23:13:47.701Z,70.30
2023-01-08T23:16:16.679Z,70.10
2023-01-08T23:18:43.738Z,70.30
2023-01-08T23:21:13.876Z,70.10
2023-01-08T23:23:41.132Z,70.10
2023-01-08T23:26:10.528Z,70.00
2023-01-08T23:28:37.862Z,70.90
2023-01-08T23:31:09.314Z,70.30
2023-01-08T23:33:36.211Z,70.40
2023-01-08T23:36:03.959Z,70.20
2023-01-08T23:38:30.957Z,70.40
2023-01-08T23:40:58.783Z,70.50
2023-01-08T23:43:25.770Z,70.40
2023-01-08T23:45:52.955Z,70.50
2023-01-08T23:48:19.904Z,70.60
2023-01-08T23:50:46.888Z,70.70
2023-01-08T23:53:13.716Z,70.90
2023-01-08T23:55:41.263Z,70.90
2023-01-08T23:58:09.023Z,70.70
